Time;durP1;ratioP1;P1;durP2;ratioP2;P2;SDS_P1;SDS_P2;PMS_P1;PMS_P2;Temp;Humidity;BMP_temperature;BMP_pressure;BME280_temperature;BME280_humidity;BME280_pressure;Samples;Min_cycle;Max_cycle;Signal;HPM_P1;HPM_P2
2022/01/24 00:01:35;;;;;;;19.85;11.77;;;2.20;99.90;;;;;;5037939;28;20022;-92
2022/01/24 00:04:02;;;;;;;58.67;14.10;;;2.20;99.90;;;;;;5040320;28;20048;-86
2022/01/24 00:06:30;;;;;;;21.48;12.15;;;2.10;99.90;;;;;;5038190;28;20097;-86
2022/01/24 00:08:55;;;;;;;23.52;11.73;;;2.20;99.90;;;;;;5037771;28;20386;-86
2022/01/24 00:11:26;;;;;;;23.35;12.32;;;2.10;99.90;;;;;;5052631;28;20021;-86
2022/01/24 00:14:34;;;;;;;22.70;11.80;;;2.20;99.90;;;;;;5038594;28;20025;-86
2022/01/24 00:27:20;;;;;;;22.55;11.15;;;2.20;99.90;;;;;;5036485;28;20060;-86
2022/01/24 00:29:46;;;;;;;21.42;11.27;;;2.20;99.90;;;;;;5033000;28;20026;-86
2022/01/24 00:32:11;;;;;;;20.13;11.10;;;2.20;99.90;;;;;;5036881;28;20033;-86
2022/01/24 00:34:37;;;;;;;18.17;10.93;;;2.20;99.90;;;;;;5037811;28;20021;-85
2022/01/24 00:37:03;;;;;;;19.77;10.90;;;2.10;99.90;;;;;;5038130;28;20029;-90
2022/01/24 00:39:29;;;;;;;20.63;11.23;;;2.20;99.90;;;;;;5041592;28;20021;-87
2022/01/24 00:42:08;;;;;;;20.38;11.48;;;2.20;99.90;;;;;;5041304;28;20306;-86
2022/01/24 00:47:21;;;;;;;20.85;10.80;;;2.20;99.90;;;;;;5042954;28;20037;-86
2022/01/24 00:52:59;;;;;;;19.77;10.98;;;2.10;99.90;;;;;;5041773;28;20363;-91
2022/01/24 00:55:23;;;;;;;;;;;2.20;99.90;;;;;;5045555;28;20205;-93
2022/01/24 00:57:48;;;;;;;19.48;11.13;;;2.20;99.90;;;;;;5045364;28;19901;-92
2022/01/24 01:00:14;;;;;;;18.23;10.45;;;2.20;99.90;;;;;;5044793;28;20120;-89
2022/01/24 01:02:41;;;;;;;23.40;11.48;;;2.20;99.90;;;;;;5044777;28;20092;-86
2022/01/24 01:07:57;;;;;;;20.08;10.35;;;2.20;99.90;;;;;;5042601;28;20301;-87
2022/01/24 01:18:37;;;;;;;25.00;11.18;;;2.20;99.90;;;;;;5044126;28;20356;-85
2022/01/24 01:21:10;;;;;;;21.02;11.48;;;2.30;99.90;;;;;;5042990;28;20025;-85
2022/01/24 01:23:44;;;;;;;20.52;11.02;;;2.20;99.90;;;;;;5042429;28;20044;-90
2022/01/24 01:26:23;;;;;;;19.75;10.88;;;2.20;99.90;;;;;;5044257;28;20021;-86
2022/01/24 01:28:55;;;;;;;19.38;11.75;;;2.20;99.90;;;;;;5042733;28;20025;-86
2022/01/24 01:34:09;;;;;;;21.65;12.13;;;2.20;99.90;;;;;;5023421;28;20026;-93
2022/01/24 01:52:56;;;;;;;20.35;9.95;;;2.10;99.90;;;;;;5022878;28;20182;-86
2022/01/24 01:55:38;;;;;;;16.35;9.48;;;2.00;99.90;;;;;;5022830;28;20100;-86
2022/01/24 01:58:15;;;;;;;19.83;10.57;;;2.00;99.90;;;;;;5022852;28;20025;-87
2022/01/24 02:00:46;;;;;;;17.70;10.15;;;2.00;99.90;;;;;;5023211;28;20029;-86
2022/01/24 02:03:12;;;;;;;19.50;10.52;;;2.00;99.90;;;;;;5022279;28;20052;-86
2022/01/24 02:05:38;;;;;;;18.23;10.00;;;2.10;99.90;;;;;;5017120;28;20030;-86
2022/01/24 02:08:05;;;;;;;18.23;10.25;;;2.10;99.90;;;;;;5022836;28;20030;-86
2022/01/24 02:10:34;;;;;;;20.30;10.13;;;2.10;99.90;;;;;;5018865;28;20092;-89
2022/01/24 02:13:00;;;;;;;18.38;10.25;;;2.00;99.90;;;;;;5022158;28;20027;-94
2022/01/24 02:23:19;;;;;;;21.67;11.15;;;2.00;99.90;;;;;;5021231;28;20045;-85
2022/01/24 02:25:45;;;;;;;16.65;10.23;;;2.00;99.90;;;;;;5021581;28;20054;-92
2022/01/24 02:28:13;;;;;;;21.23;11.25;;;2.00;99.90;;;;;;5022968;28;20021;-87
2022/01/24 02:30:54;;;;;;;18.48;10.63;;;2.00;99.90;;;;;;5021296;28;20076;-86
2022/01/24 02:33:20;;;;;;;18.70;9.98;;;2.00;99.90;;;;;;5022367;28;20121;-86
2022/01/24 02:35:47;;;;;;;18.35;10.55;;;2.00;99.90;;;;;;5022952;28;20215;-85
2022/01/24 02:38:25;;;;;;;17.17;10.13;;;2.00;99.90;;;;;;5020556;28;20030;-85
2022/01/24 02:49:11;;;;;;;;;;;2.00;99.90;;;;;;5021259;28;20041;-86
2022/01/24 02:51:46;;;;;;;21.10;11.07;;;2.00;99.90;;;;;;5025532;28;19905;-86
2022/01/24 02:54:31;;;;;;;20.15;11.25;;;2.00;99.90;;;;;;5041238;28;20026;-93
2022/01/24 02:56:57;;;;;;;24.42;11.45;;;2.00;99.90;;;;;;5040949;28;20096;-89
2022/01/24 02:59:23;;;;;;;21.05;11.18;;;2.00;99.90;;;;;;5058059;28;20044;-86
2022/01/24 03:01:49;;;;;;;20.83;11.27;;;2.00;99.90;;;;;;5038078;28;20017;-86
2022/01/24 03:04:15;;;;;;;22.20;11.27;;;2.00;99.90;;;;;;5041821;28;20060;-85
2022/01/24 03:06:40;;;;;;;26.45;12.43;;;2.00;99.90;;;;;;5041070;28;20034;-89
2022/01/24 03:09:07;;;;;;;20.35;10.65;;;2.00;99.90;;;;;;5039291;28;20032;-89
2022/01/24 03:14:20;;;;;;;28.17;12.00;;;2.00;99.90;;;;;;5041524;28;20110;-86
2022/01/24 03:16:47;;;;;;;23.25;12.00;;;2.10;99.90;;;;;;5041597;28;20031;-92
2022/01/24 03:19:13;;;;;;;20.02;12.35;;;2.00;99.90;;;;;;5042054;28;20032;-86
2022/01/24 03:21:38;;;;;;;26.30;11.55;;;2.00;99.90;;;;;;5038185;28;20033;-92
2022/01/24 03:24:04;;;;;;;22.13;11.52;;;2.00;99.90;;;;;;5038509;28;20643;-86
2022/01/24 03:26:30;;;;;;;24.45;11.73;;;2.00;99.90;;;;;;5035707;28;20056;-92
2022/01/24 03:28:56;;;;;;;22.55;10.77;;;2.00;99.90;;;;;;5038654;28;20028;-87
2022/01/24 03:31:22;;;;;;;21.58;11.70;;;1.90;99.90;;;;;;5039790;28;20164;-86
2022/01/24 03:33:47;;;;;;;22.13;11.88;;;1.90;99.90;;;;;;5041939;28;20047;-85
2022/01/24 03:36:13;;;;;;;21.10;12.50;;;1.90;99.90;;;;;;5039260;28;20021;-86
2022/01/24 03:38:39;;;;;;;19.98;10.95;;;1.90;99.90;;;;;;5040071;28;20041;-86
2022/01/24 03:41:05;;;;;;;22.70;11.75;;;1.80;99.90;;;;;;5038637;28;20401;-86
2022/01/24 03:43:30;;;;;;;22.67;12.23;;;1.90;99.90;;;;;;5038236;28;20061;-86
2022/01/24 03:48:47;;;;;;;;;;;1.80;99.90;;;;;;5042273;28;20032;-86
2022/01/24 03:51:14;;;;;;;22.98;11.95;;;1.80;99.90;;;;;;5040859;28;19908;-86
2022/01/24 03:53:41;;;;;;;29.83;13.00;;;1.80;99.90;;;;;;5039836;28;20025;-87
2022/01/24 03:56:08;;;;;;;25.30;13.23;;;1.80;99.90;;;;;;5041680;28;20352;-86
2022/01/24 03:58:35;;;;;;;333.35;33.20;;;1.80;99.90;;;;;;5036661;28;20014;-91
2022/01/24 04:01:03;;;;;;;28.25;14.50;;;1.90;99.90;;;;;;5041714;28;20097;-87
2022/01/24 04:03:29;;;;;;;31.05;14.98;;;1.90;99.90;;;;;;5040529;28;20026;-86
2022/01/24 04:05:55;;;;;;;26.98;14.10;;;1.80;99.90;;;;;;5034798;28;20025;-87
2022/01/24 04:08:22;;;;;;;32.60;15.70;;;1.80;99.90;;;;;;5039797;28;20037;-86
2022/01/24 04:10:52;;;;;;;27.13;15.13;;;1.90;99.90;;;;;;5041201;28;20009;-86
2022/01/24 04:15:59;;;;;;;27.90;14.75;;;2.00;99.90;;;;;;5041488;28;20096;-86
2022/01/24 04:23:42;;;;;;;34.33;15.52;;;2.20;99.90;;;;;;5040389;28;20054;-86
2022/01/24 04:26:08;;;;;;;32.65;15.73;;;2.20;99.90;;;;;;5039846;28;20033;-89
2022/01/24 04:28:33;;;;;;;28.13;15.70;;;2.20;99.90;;;;;;5040379;28;20065;-86
2022/01/24 04:30:59;;;;;;;30.95;15.50;;;2.30;99.90;;;;;;5043001;28;20021;-86
2022/01/24 04:33:25;;;;;;;29.92;16.30;;;2.30;99.90;;;;;;5040618;28;20025;-86
2022/01/24 04:35:50;;;;;;;29.50;15.48;;;2.30;99.90;;;;;;5043045;28;20029;-86
2022/01/24 04:38:17;;;;;;;30.77;14.38;;;2.30;99.90;;;;;;5043072;28;20044;-85
2022/01/24 04:40:43;;;;;;;33.85;15.43;;;2.20;99.90;;;;;;5040669;28;20052;-87
2022/01/24 04:43:46;;;;;;;35.20;16.10;;;2.30;99.90;;;;;;5043184;28;20057;-86
2022/01/24 04:51:55;;;;;;;;;;;2.30;99.90;;;;;;5044016;28;20033;-87
2022/01/24 04:54:40;;;;;;;35.08;15.13;;;2.30;99.90;;;;;;5040106;28;19951;-86
2022/01/24 04:57:08;;;;;;;27.92;14.23;;;2.30;99.90;;;;;;5059626;28;20036;-86
2022/01/24 04:59:34;;;;;;;28.00;15.23;;;2.30;99.90;;;;;;5043381;28;20099;-86
2022/01/24 05:02:00;;;;;;;34.83;16.05;;;2.30;99.90;;;;;;5042096;28;20045;-85
2022/01/24 05:04:26;;;;;;;28.75;15.45;;;2.30;99.90;;;;;;5044029;28;20036;-88
2022/01/24 05:06:51;;;;;;;32.00;15.40;;;2.20;99.90;;;;;;5041121;28;20053;-86
2022/01/24 05:09:18;;;;;;;31.27;14.93;;;2.20;99.90;;;;;;5056648;28;20488;-86
2022/01/24 05:11:51;;;;;;;31.13;15.27;;;2.30;99.90;;;;;;5058078;28;20354;-86
2022/01/24 05:25:16;;;;;;;33.63;16.92;;;2.30;99.90;;;;;;5039964;28;20121;-93
2022/01/24 05:27:41;;;;;;;32.22;16.27;;;2.30;99.90;;;;;;5040249;28;20114;-86
2022/01/24 05:30:07;;;;;;;30.80;16.42;;;2.30;99.90;;;;;;5042364;28;20033;-89
2022/01/24 05:32:33;;;;;;;33.75;16.48;;;2.30;99.90;;;;;;5043497;28;20006;-92
2022/01/24 05:34:59;;;;;;;36.83;16.35;;;2.30;99.90;;;;;;5043667;28;20030;-87
2022/01/24 05:37:24;;;;;;;33.08;16.80;;;2.30;99.90;;;;;;5040266;28;20045;-86
2022/01/24 05:39:50;;;;;;;39.15;16.92;;;2.30;99.90;;;;;;5040180;28;20064;-87
2022/01/24 05:42:18;;;;;;;32.28;16.55;;;2.30;99.90;;;;;;5040395;28;20050;-87
2022/01/24 05:44:44;;;;;;;36.97;18.25;;;2.30;99.90;;;;;;5037466;28;20113;-87
2022/01/24 05:47:10;;;;;;;34.50;17.15;;;2.40;99.90;;;;;;5041514;28;20357;-86
2022/01/24 05:49:36;;;;;;;32.45;17.85;;;2.40;99.90;;;;;;5042041;28;20044;-88
2022/01/24 05:52:08;;;;;;;35.92;17.63;;;2.30;99.90;;;;;;5042803;28;20021;-86
2022/01/24 05:54:38;;;;;;;34.55;17.83;;;2.40;99.90;;;;;;5056827;28;20022;-85
2022/01/24 05:57:04;;;;;;;32.63;17.88;;;2.40;99.90;;;;;;5040225;28;20025;-86
2022/01/24 05:59:30;;;;;;;41.20;18.17;;;2.40;99.90;;;;;;5042953;28;20030;-86
2022/01/24 06:01:56;;;;;;;36.65;17.23;;;2.40;99.90;;;;;;5042819;28;20020;-85
2022/01/24 06:04:22;;;;;;;33.22;15.70;;;2.30;99.90;;;;;;5040153;28;20032;-86
2022/01/24 06:06:47;;;;;;;34.28;17.75;;;2.30;99.90;;;;;;5042897;28;20028;-85
2022/01/24 06:09:13;;;;;;;35.22;17.98;;;2.40;99.90;;;;;;5041308;28;20029;-86
2022/01/24 06:11:39;;;;;;;32.15;17.67;;;2.40;99.90;;;;;;5042570;28;20055;-87
2022/01/24 06:14:05;;;;;;;35.17;17.33;;;2.50;99.90;;;;;;5037211;28;20025;-85
2022/01/24 06:16:31;;;;;;;35.78;17.63;;;2.50;99.90;;;;;;5045889;28;20029;-86
2022/01/24 06:18:56;;;;;;;33.78;17.95;;;2.60;99.90;;;;;;5043197;28;20053;-88
2022/01/24 06:21:22;;;;;;;33.03;16.75;;;2.60;99.90;;;;;;5042075;28;20013;-86
2022/01/24 06:23:48;;;;;;;36.97;17.83;;;2.60;99.90;;;;;;5040616;28;20033;-94
2022/01/24 06:26:14;;;;;;;34.42;17.67;;;2.60;99.90;;;;;;5042543;28;20025;-86
2022/01/24 06:28:40;;;;;;;36.47;18.20;;;2.60;99.90;;;;;;5043035;28;20021;-86
2022/01/24 06:31:06;;;;;;;71.75;19.23;;;2.60;99.90;;;;;;5042953;28;20017;-86
2022/01/24 06:33:32;;;;;;;32.10;16.65;;;2.50;99.90;;;;;;5042988;28;20360;-86
2022/01/24 06:35:59;;;;;;;70.82;18.20;;;2.40;99.90;;;;;;5042335;28;20028;-87
2022/01/24 06:38:25;;;;;;;66.53;17.98;;;2.30;99.90;;;;;;5042497;28;20029;-86
2022/01/24 06:40:51;;;;;;;36.45;17.25;;;2.30;99.90;;;;;;5040834;28;20048;-86
2022/01/24 06:43:16;;;;;;;44.42;16.52;;;2.30;99.90;;;;;;5041224;28;20053;-86
2022/01/24 06:45:42;;;;;;;77.70;18.98;;;2.30;99.90;;;;;;5038364;28;20080;-86
2022/01/24 06:48:08;;;;;;;38.30;16.95;;;2.40;99.90;;;;;;5040251;28;20029;-92
2022/01/24 06:50:34;;;;;;;53.53;17.17;;;2.30;99.90;;;;;;5038640;28;20029;-86
2022/01/24 06:53:00;;;;;;;36.63;15.02;;;2.30;99.90;;;;;;5039970;28;20029;-86
2022/01/24 06:55:26;;;;;;;42.15;16.38;;;2.30;99.90;;;;;;5036345;28;20022;-87
2022/01/24 06:57:52;;;;;;;60.13;16.27;;;2.20;99.90;;;;;;5029970;28;20959;-87
2022/01/24 07:00:22;;;;;;;58.00;16.35;;;2.20;99.90;;;;;;5029392;28;20018;-88
2022/01/24 07:02:48;;;;;;;28.63;14.30;;;2.20;99.90;;;;;;5026900;28;20030;-87
2022/01/24 07:05:14;;;;;;;48.97;15.45;;;2.20;99.90;;;;;;5028875;28;20025;-87
2022/01/24 07:07:40;;;;;;;76.32;16.30;;;2.20;99.90;;;;;;5028625;28;20037;-87
2022/01/24 07:10:06;;;;;;;53.03;16.67;;;2.20;99.90;;;;;;5029241;28;20026;-89
2022/01/24 07:12:32;;;;;;;46.58;18.92;;;2.20;99.90;;;;;;5029460;28;20044;-87
2022/01/24 07:15:03;;;;;;;70.88;17.73;;;2.20;99.90;;;;;;5030628;28;20491;-87
2022/01/24 07:17:45;;;;;;;80.55;18.38;;;2.30;99.90;;;;;;5030974;28;20442;-87
2022/01/24 07:20:11;;;;;;;70.38;16.83;;;2.30;99.90;;;;;;5030512;28;20017;-87
2022/01/24 07:22:37;;;;;;;53.92;16.90;;;2.30;99.90;;;;;;5030019;28;20401;-86
2022/01/24 07:25:03;;;;;;;264.70;29.40;;;2.30;99.90;;;;;;5030422;28;20025;-86
2022/01/24 07:27:29;;;;;;;27.05;14.40;;;2.20;99.90;;;;;;5028738;28;20026;-86
2022/01/24 07:29:54;;;;;;;98.88;19.10;;;2.20;99.90;;;;;;5030225;28;20061;-87
2022/01/24 07:32:20;;;;;;;40.58;14.82;;;2.20;99.90;;;;;;5029070;28;20026;-87
2022/01/24 07:34:46;;;;;;;39.53;14.52;;;2.20;99.90;;;;;;5030699;28;20023;-87
2022/01/24 07:37:13;;;;;;;53.67;15.93;;;2.20;99.90;;;;;;5030057;28;20109;-87
2022/01/24 07:39:38;;;;;;;28.08;14.10;;;2.20;99.90;;;;;;5030465;28;20492;-87
2022/01/24 07:42:15;;;;;;;71.43;14.48;;;2.20;99.90;;;;;;5030358;28;20021;-87
2022/01/24 07:44:41;;;;;;;32.38;14.40;;;2.20;99.90;;;;;;5029087;28;20041;-88
2022/01/24 07:47:07;;;;;;;34.50;13.63;;;2.10;99.90;;;;;;5028893;28;20022;-87
2022/01/24 07:49:34;;;;;;;31.08;14.13;;;2.00;99.90;;;;;;5029783;28;20477;-87
2022/01/24 07:52:00;;;;;;;41.38;14.50;;;2.00;99.90;;;;;;5014001;28;20615;-88
2022/01/24 07:54:26;;;;;;;28.02;14.75;;;2.00;99.90;;;;;;5010732;28;20032;-87
2022/01/24 07:56:52;;;;;;;27.58;14.68;;;2.00;99.90;;;;;;5025726;28;20105;-87
2022/01/24 07:59:19;;;;;;;31.45;14.00;;;2.00;99.90;;;;;;5010550;28;20061;-87
2022/01/24 08:01:50;;;;;;;27.08;14.30;;;2.00;99.90;;;;;;5011887;28;20460;-87
2022/01/24 08:04:16;;;;;;;29.77;14.07;;;2.00;99.90;;;;;;5014189;28;20038;-87
2022/01/24 08:06:43;;;;;;;31.95;14.35;;;1.90;99.90;;;;;;5015681;28;20025;-89
2022/01/24 08:09:09;;;;;;;25.75;13.77;;;1.90;99.90;;;;;;5014858;28;20040;-87
2022/01/24 08:11:36;;;;;;;30.83;13.90;;;1.80;99.90;;;;;;5014773;28;20015;-87
2022/01/24 08:14:02;;;;;;;27.20;14.60;;;1.90;99.90;;;;;;5015009;28;20443;-87
2022/01/24 08:16:28;;;;;;;27.85;14.43;;;1.80;99.90;;;;;;5029595;28;20076;-87
2022/01/24 08:18:56;;;;;;;32.50;15.00;;;1.80;99.90;;;;;;5014558;28;20105;-87
2022/01/24 08:21:22;;;;;;;33.97;22.45;;;1.80;99.90;;;;;;5014310;28;20439;-88
2022/01/24 08:23:49;;;;;;;24.73;16.10;;;1.90;99.90;;;;;;5014068;28;20061;-87
2022/01/24 08:26:14;;;;;;;24.98;14.82;;;1.90;99.90;;;;;;5014410;28;20103;-87
2022/01/24 08:28:40;;;;;;;24.55;14.70;;;1.90;99.90;;;;;;5013224;28;20116;-87
2022/01/24 08:31:06;;;;;;;24.80;14.70;;;2.00;99.90;;;;;;5014231;28;20498;-90
2022/01/24 08:33:32;;;;;;;20.55;13.00;;;2.10;99.90;;;;;;5014644;28;20425;-87
2022/01/24 08:35:57;;;;;;;22.05;12.82;;;2.30;99.90;;;;;;5014149;28;20026;-87
2022/01/24 08:38:23;;;;;;;23.85;13.50;;;2.30;99.90;;;;;;5013943;28;20029;-88
2022/01/24 08:40:56;;;;;;;21.73;13.38;;;2.30;99.90;;;;;;5014286;28;20033;-88
2022/01/24 08:43:56;;;;;;;23.30;12.85;;;2.30;99.90;;;;;;5013770;28;20045;-89
2022/01/24 08:46:22;;;;;;;25.13;13.23;;;2.30;99.90;;;;;;5012526;28;20030;-89
2022/01/24 08:48:49;;;;;;;24.30;14.25;;;2.30;99.90;;;;;;5013753;28;20083;-87
2022/01/24 08:51:15;;;;;;;22.83;12.40;;;2.40;99.90;;;;;;5013495;28;20057;-89
2022/01/24 08:53:42;;;;;;;25.15;13.70;;;2.50;99.90;;;;;;5013723;28;20026;-87
2022/01/24 08:56:10;;;;;;;29.85;13.73;;;2.50;99.90;;;;;;5012259;28;20028;-89
2022/01/24 08:58:36;;;;;;;22.80;12.93;;;2.60;99.90;;;;;;5013776;28;20026;-89
2022/01/24 09:01:02;;;;;;;23.67;14.00;;;2.60;99.90;;;;;;5015287;28;20157;-91
2022/01/24 09:03:32;;;;;;;22.25;13.70;;;2.60;99.90;;;;;;5033443;28;20183;-87
2022/01/24 09:05:59;;;;;;;27.73;14.88;;;2.70;99.90;;;;;;5048998;28;20036;-89
2022/01/24 09:08:25;;;;;;;23.70;14.02;;;2.70;99.90;;;;;;5033035;28;20421;-88
2022/01/24 09:10:52;;;;;;;24.45;13.80;;;2.70;99.90;;;;;;5031983;28;20076;-88
2022/01/24 09:13:21;;;;;;;30.63;15.57;;;2.80;99.90;;;;;;5032220;28;20084;-88
2022/01/24 09:15:47;;;;;;;26.55;14.85;;;2.80;99.90;;;;;;5033174;28;20045;-88
2022/01/24 09:18:13;;;;;;;30.85;16.63;;;2.90;99.90;;;;;;5032034;28;20402;-87
2022/01/24 09:20:39;;;;;;;41.47;21.58;;;2.90;99.90;;;;;;5032463;28;20025;-87
2022/01/24 09:23:06;;;;;;;28.23;17.02;;;2.90;99.90;;;;;;5031596;28;20037;-88
2022/01/24 09:25:32;;;;;;;28.25;16.75;;;2.90;99.90;;;;;;5032539;28;20187;-88
2022/01/24 09:27:58;;;;;;;32.67;17.10;;;2.80;99.90;;;;;;5032792;28;20462;-87
2022/01/24 09:30:24;;;;;;;30.27;16.17;;;3.00;99.90;;;;;;5032871;28;20017;-87
2022/01/24 09:32:51;;;;;;;27.27;15.82;;;3.00;99.90;;;;;;5032178;28;20033;-89
2022/01/24 09:35:18;;;;;;;28.42;16.13;;;3.00;99.90;;;;;;5033006;28;20013;-88
2022/01/24 09:37:46;;;;;;;36.78;17.13;;;3.10;99.90;;;;;;5032764;28;20031;-87
2022/01/24 09:40:15;;;;;;;28.23;15.38;;;3.20;99.90;;;;;;5032821;28;20013;-87
2022/01/24 09:42:42;;;;;;;34.40;16.10;;;3.20;99.90;;;;;;5033110;28;20140;-88
2022/01/24 09:45:10;;;;;;;26.38;15.60;;;3.40;99.90;;;;;;5033614;28;20025;-89
2022/01/24 09:47:38;;;;;;;28.55;16.45;;;3.40;99.90;;;;;;5033563;28;20025;-87
2022/01/24 09:50:07;;;;;;;34.70;15.60;;;3.60;99.90;;;;;;5032745;28;20188;-88
2022/01/24 09:52:33;;;;;;;27.70;15.00;;;3.60;99.90;;;;;;5031100;28;20053;-87
2022/01/24 09:54:59;;;;;;;28.20;14.75;;;3.60;99.90;;;;;;5033263;28;20030;-89
2022/01/24 09:57:24;;;;;;;25.65;14.90;;;3.70;99.90;;;;;;5033243;28;20037;-87
2022/01/24 09:59:51;;;;;;;37.22;16.73;;;3.80;99.90;;;;;;5032776;28;20025;-88
2022/01/24 10:02:17;;;;;;;32.92;15.07;;;3.80;99.90;;;;;;5031684;28;20033;-88
2022/01/24 10:04:42;;;;;;;27.13;14.75;;;4.00;99.90;;;;;;5033160;28;20091;-88
2022/01/24 10:07:13;;;;;;;26.10;15.32;;;4.00;99.90;;;;;;5032751;28;20432;-88
2022/01/24 10:09:42;;;;;;;25.30;15.18;;;4.10;99.90;;;;;;5030715;28;20022;-89
2022/01/24 10:17:46;;;;;;;29.70;15.98;;;4.30;99.90;;;;;;5033958;28;20036;-90
2022/01/24 10:20:22;;;;;;;27.42;15.65;;;4.50;99.90;;;;;;5035635;28;20030;-88
2022/01/24 10:23:26;;;;;;;25.38;15.52;;;4.50;99.90;;;;;;5036525;28;20029;-88
2022/01/24 10:26:02;;;;;;;30.15;16.45;;;4.70;99.90;;;;;;4976621;28;20128;-87
2022/01/24 10:28:39;;;;;;;28.67;16.05;;;4.70;99.90;;;;;;5033376;28;20109;-87
2022/01/24 10:31:21;;;;;;;28.88;16.05;;;4.80;99.90;;;;;;5039997;28;20056;-88
2022/01/24 10:34:12;;;;;;;23.95;15.27;;;4.90;99.90;;;;;;5039610;28;20041;-88
2022/01/24 10:36:43;;;;;;;30.58;15.85;;;5.00;99.90;;;;;;5039649;28;20196;-89
2022/01/24 10:39:18;;;;;;;38.65;21.63;;;5.10;99.90;;;;;;5039607;28;20018;-88
2022/01/24 10:41:57;;;;;;;38.33;21.30;;;5.10;99.90;;;;;;5037165;28;20029;-88
2022/01/24 10:44:31;;;;;;;26.52;16.73;;;5.20;99.90;;;;;;5035695;28;20045;-88
2022/01/24 10:47:22;;;;;;;27.65;16.80;;;5.40;99.90;;;;;;5035385;28;20087;-87
2022/01/24 10:49:47;;;;;;;27.70;16.55;;;5.50;99.90;;;;;;5034749;28;20026;-88
2022/01/24 10:52:23;;;;;;;30.67;19.20;;;5.60;99.90;;;;;;5034574;28;20055;-88
2022/01/24 10:54:52;;;;;;;27.33;17.33;;;5.70;99.90;;;;;;5035296;28;20017;-88
2022/01/24 10:57:28;;;;;;;27.65;16.73;;;5.80;99.90;;;;;;5050658;28;20034;-89
2022/01/24 11:00:19;;;;;;;26.65;15.60;;;5.90;99.90;;;;;;5036155;28;20033;-88
2022/01/24 11:02:49;;;;;;;26.13;16.30;;;6.00;99.90;;;;;;5035316;28;20065;-90
2022/01/24 11:05:22;;;;;;;25.75;16.67;;;6.10;99.90;;;;;;5036540;28;20018;-89
2022/01/24 11:07:52;;;;;;;25.47;16.00;;;6.20;99.90;;;;;;5035134;28;20032;-88
2022/01/24 11:10:19;;;;;;;25.80;15.98;;;6.40;99.90;;;;;;5035357;28;20311;-89
2022/01/24 11:12:45;;;;;;;25.38;16.25;;;6.40;99.90;;;;;;5036684;28;20100;-89
2022/01/24 11:15:11;;;;;;;25.98;16.35;;;6.50;99.90;;;;;;5039371;28;20494;-89
2022/01/24 11:17:39;;;;;;;24.13;15.43;;;6.60;99.90;;;;;;5040462;28;20058;-89
2022/01/24 11:20:06;;;;;;;26.58;15.57;;;6.60;99.90;;;;;;5034267;28;20021;-90
2022/01/24 11:22:35;;;;;;;26.23;15.30;;;6.70;99.90;;;;;;5031018;28;20098;-88
2022/01/24 11:25:06;;;;;;;25.40;15.07;;;6.70;99.90;;;;;;5032646;28;20032;-88
2022/01/24 11:27:33;;;;;;;22.83;15.07;;;6.80;99.90;;;;;;5034433;28;20025;-89
2022/01/24 11:30:11;;;;;;;24.50;16.00;;;6.90;99.90;;;;;;5030232;28;20402;-87
2022/01/24 11:32:40;;;;;;;22.88;15.45;;;6.80;99.90;;;;;;5031121;28;20163;-90
2022/01/24 11:35:06;;;;;;;28.50;15.80;;;7.00;99.90;;;;;;5030795;28;20490;-88
2022/01/24 11:37:43;;;;;;;26.23;16.30;;;7.10;99.90;;;;;;5031522;28;20470;-88
2022/01/24 11:40:12;;;;;;;24.02;15.15;;;7.20;99.90;;;;;;5029689;28;20433;-89
2022/01/24 11:42:39;;;;;;;23.83;16.15;;;7.30;99.90;;;;;;5030629;28;20049;-88
2022/01/24 11:45:12;;;;;;;22.67;14.73;;;7.40;99.90;;;;;;5030552;28;20033;-88
2022/01/24 11:47:39;;;;;;;25.50;15.15;;;7.50;99.90;;;;;;5030299;28;20470;-88
2022/01/24 11:50:24;;;;;;;24.77;15.40;;;7.60;99.90;;;;;;5045861;28;20405;-88
2022/01/24 11:52:51;;;;;;;23.27;14.80;;;7.60;99.90;;;;;;5029949;28;20025;-88
2022/01/24 11:55:30;;;;;;;23.77;14.98;;;7.70;99.90;;;;;;5030920;28;20076;-88
2022/01/24 11:58:06;;;;;;;23.95;15.50;;;7.80;99.90;;;;;;5030709;28;20013;-88
2022/01/24 12:00:40;;;;;;;26.38;16.05;;;7.90;99.90;;;;;;5029518;28;20028;-88
2022/01/24 12:03:16;;;;;;;24.00;14.95;;;8.00;99.90;;;;;;5030962;28;20040;-89
2022/01/24 12:05:44;;;;;;;25.98;17.02;;;8.00;99.90;;;;;;5031069;28;20212;-87
2022/01/24 12:08:13;;;;;;;25.33;15.77;;;8.10;99.90;;;;;;5029839;28;20025;-89
2022/01/24 12:10:43;;;;;;;23.98;15.45;;;8.10;99.90;;;;;;5030628;28;20097;-88
2022/01/24 12:13:17;;;;;;;26.10;15.52;;;8.20;99.90;;;;;;5029229;28;20018;-89
2022/01/24 12:15:43;;;;;;;26.02;14.40;;;8.20;99.90;;;;;;5028735;28;20034;-88
2022/01/24 12:18:11;;;;;;;22.90;14.50;;;8.30;99.90;;;;;;5028954;28;20048;-89
2022/01/24 12:20:42;;;;;;;26.35;15.95;;;8.40;99.90;;;;;;5030248;28;20025;-88
2022/01/24 12:23:19;;;;;;;25.25;15.57;;;8.50;99.90;;;;;;5028248;28;20041;-88
2022/01/24 12:25:49;;;;;;;24.00;14.93;;;8.60;99.90;;;;;;5029025;28;20477;-88
2022/01/24 12:28:20;;;;;;;23.98;16.42;;;8.70;99.90;;;;;;5030109;28;20029;-88
2022/01/24 12:31:24;;;;;;;24.10;15.45;;;8.70;99.90;;;;;;5030090;28;20033;-88
2022/01/24 12:34:17;;;;;;;26.13;14.20;;;8.90;99.90;;;;;;5027410;28;20037;-89
2022/01/24 12:36:50;;;;;;;23.63;14.85;;;9.00;99.90;;;;;;5026837;28;20029;-89
2022/01/24 12:39:24;;;;;;;18.33;12.82;;;9.10;99.90;;;;;;5029177;28;20029;-88
2022/01/24 12:42:00;;;;;;;24.45;13.35;;;9.20;99.90;;;;;;5030240;28;20067;-89
2022/01/24 12:47:11;;;;;;;20.80;13.10;;;9.30;99.90;;;;;;5030419;28;20029;-88
2022/01/24 12:49:37;;;;;;;;;;;9.50;99.90;;;;;;5031257;28;20533;-89
2022/01/24 12:52:05;;;;;;;17.98;12.02;;;9.50;99.90;;;;;;5032093;28;20281;-89
2022/01/24 12:54:33;;;;;;;19.60;12.98;;;9.60;99.90;;;;;;5033338;28;20032;-88
2022/01/24 12:57:01;;;;;;;19.73;12.45;;;9.70;99.90;;;;;;5033279;28;20501;-89
2022/01/24 12:59:27;;;;;;;21.65;13.70;;;9.70;99.90;;;;;;5033539;28;20048;-88
2022/01/24 13:01:56;;;;;;;22.63;14.30;;;9.80;99.90;;;;;;5033705;28;20381;-88
2022/01/24 13:04:37;;;;;;;20.80;13.80;;;9.80;99.90;;;;;;5033496;28;20034;-88
2022/01/24 13:07:03;;;;;;;24.63;14.68;;;9.90;99.90;;;;;;5033206;28;20023;-88
2022/01/24 13:09:29;;;;;;;21.48;13.73;;;10.00;99.90;;;;;;5033544;28;20029;-88
2022/01/24 13:11:56;;;;;;;23.17;14.10;;;10.00;99.90;;;;;;5033218;28;20144;-88
2022/01/24 13:22:41;;;;;;;20.35;13.40;;;10.20;99.90;;;;;;5032783;28;20036;-90
2022/01/24 13:25:23;;;;;;;18.25;12.50;;;10.30;99.90;;;;;;5033027;28;20029;-88
2022/01/24 13:28:01;;;;;;;23.15;12.75;;;10.30;99.90;;;;;;5033223;28;20018;-87
2022/01/24 13:30:30;;;;;;;17.98;12.30;;;10.40;99.90;;;;;;5033106;28;20498;-88
2022/01/24 13:32:58;;;;;;;20.13;12.40;;;10.50;99.90;;;;;;5033269;28;20571;-88
2022/01/24 13:35:40;;;;;;;15.27;11.30;;;10.50;99.90;;;;;;5033373;28;20049;-88
2022/01/24 13:38:27;;;;;;;21.23;12.07;;;10.50;99.90;;;;;;5032573;28;20025;-87
2022/01/24 13:41:04;;;;;;;18.05;11.18;;;10.60;99.90;;;;;;5032875;28;20056;-88
2022/01/24 13:43:33;;;;;;;18.65;10.90;;;10.50;99.90;;;;;;5033340;28;20107;-88
2022/01/24 13:46:01;;;;;;;16.15;10.40;;;10.60;99.90;;;;;;5032771;28;20061;-88
2022/01/24 13:48:27;;;;;;;16.02;11.27;;;10.70;99.90;;;;;;5033571;28;20451;-88
2022/01/24 13:50:58;;;;;;;20.30;11.88;;;10.70;99.90;;;;;;5033128;28;20057;-88
2022/01/24 13:53:42;;;;;;;17.92;11.60;;;10.70;99.90;;;;;;5032350;28;20061;-91
2022/01/24 13:56:27;;;;;;;23.70;14.00;;;10.70;99.90;;;;;;5032830;28;20026;-88
2022/01/24 13:58:58;;;;;;;;;;;10.70;99.90;;;;;;5033045;28;20028;-90
2022/01/24 14:01:24;;;;;;;22.98;11.98;;;10.70;99.90;;;;;;5031232;28;19909;-89
2022/01/24 14:04:01;;;;;;;18.17;11.07;;;10.70;99.90;;;;;;5031216;28;20056;-88
2022/01/24 14:06:32;;;;;;;70.95;26.38;;;10.70;99.90;;;;;;5032304;28;20014;-89
2022/01/24 14:09:08;;;;;;;54.63;20.27;;;10.70;99.90;;;;;;5033293;28;20496;-88
2022/01/24 14:11:40;;;;;;;42.33;18.65;;;10.80;99.90;;;;;;5032772;28;20091;-88
2022/01/24 14:14:10;;;;;;;16.75;10.32;;;10.80;99.90;;;;;;5031070;28;20061;-88
2022/01/24 14:19:32;;;;;;;17.40;10.98;;;10.90;99.90;;;;;;5032174;28;20536;-88
2022/01/24 14:22:10;;;;;;;16.02;11.40;;;10.90;99.90;;;;;;5031523;28;20076;-88
2022/01/24 14:24:49;;;;;;;16.70;10.25;;;11.00;99.90;;;;;;5031599;28;20034;-89
2022/01/24 14:27:39;;;;;;;16.80;10.18;;;11.10;99.90;;;;;;5032330;28;20179;-89
2022/01/24 14:30:20;;;;;;;15.13;10.00;;;11.00;99.90;;;;;;5031617;28;20474;-89
2022/01/24 14:33:22;;;;;;;15.93;9.95;;;11.10;99.90;;;;;;5031874;28;20148;-89
2022/01/24 14:35:55;;;;;;;15.15;9.82;;;11.10;99.90;;;;;;5009169;28;20599;-89
2022/01/24 14:38:29;;;;;;;15.98;9.93;;;11.10;99.90;;;;;;5031093;28;20022;-89
2022/01/24 14:40:59;;;;;;;16.48;10.13;;;11.20;99.90;;;;;;5031272;28;20052;-90
2022/01/24 14:46:10;;;;;;;;;;;11.10;99.90;;;;;;5031936;28;20195;-88